Time;durP1;ratioP1;P1;durP2;ratioP2;P2;SDS_P1;SDS_P2;PMS_P1;PMS_P2;Temp;Humidity;BMP_temperature;BMP_pressure;BME280_temperature;BME280_humidity;BME280_pressure;Samples;Min_cycle;Max_cycle;Signal;HPM_P1;HPM_P2
2022/05/10 00:01:42;;;;;;;22.47;12.07;;;14.40;99.90;;;;;;5048614;28;20185;-86
2022/05/10 00:04:10;;;;;;;19.33;11.10;;;14.40;99.90;;;;;;5050493;28;20244;-86
2022/05/10 00:06:41;;;;;;;19.70;11.53;;;14.50;99.90;;;;;;5045497;28;20245;-86
2022/05/10 00:09:09;;;;;;;17.30;11.13;;;14.40;99.90;;;;;;5039932;28;20173;-85
2022/05/10 00:11:35;;;;;;;24.03;11.57;;;14.30;99.90;;;;;;5038749;28;20201;-85
2022/05/10 00:14:00;;;;;;;18.23;10.70;;;14.30;99.90;;;;;;5039312;28;20169;-84
2022/05/10 00:16:31;;;;;;;19.00;11.90;;;14.40;99.90;;;;;;5044940;28;20180;-84
2022/05/10 00:18:56;;;;;;;18.50;11.27;;;14.20;99.90;;;;;;5043027;28;20165;-84
2022/05/10 00:21:24;;;;;;;17.40;11.43;;;14.20;99.90;;;;;;5038220;28;20193;-84
2022/05/10 00:23:50;;;;;;;20.83;12.50;;;14.10;99.90;;;;;;5031195;28;20177;-84
2022/05/10 00:26:17;;;;;;;17.37;10.83;;;14.20;99.90;;;;;;5038672;28;20231;-85
2022/05/10 00:28:43;;;;;;;19.13;11.83;;;14.30;99.90;;;;;;5038659;28;20264;-84
2022/05/10 00:31:09;;;;;;;17.67;11.50;;;14.30;99.90;;;;;;5038505;28;20243;-85
2022/05/10 00:33:37;;;;;;;18.77;11.53;;;14.10;99.90;;;;;;5038785;28;20173;-84
2022/05/10 00:36:04;;;;;;;17.43;10.90;;;14.30;99.90;;;;;;5038679;28;20233;-84
2022/05/10 00:38:38;;;;;;;15.97;11.50;;;14.30;99.90;;;;;;5038568;28;20184;-84
2022/05/10 00:41:18;;;;;;;19.90;11.67;;;14.30;99.90;;;;;;5038576;28;20189;-84
2022/05/10 00:43:47;;;;;;;17.03;11.03;;;14.20;99.90;;;;;;5038827;28;20173;-84
2022/05/10 00:46:31;;;;;;;17.60;11.97;;;14.10;99.90;;;;;;5038568;28;20215;-84
2022/05/10 00:49:13;;;;;;;16.00;10.90;;;14.10;99.90;;;;;;5036271;28;20173;-84
2022/05/10 00:51:53;;;;;;;18.27;11.00;;;14.20;99.90;;;;;;5037228;28;20196;-84
2022/05/10 00:54:29;;;;;;;21.37;10.83;;;14.20;99.90;;;;;;5039251;28;20637;-84
2022/05/10 00:57:01;;;;;;;18.13;11.60;;;14.10;99.90;;;;;;5037594;28;20169;-84
2022/05/10 00:59:58;;;;;;;20.23;11.70;;;14.10;99.90;;;;;;5038623;28;20204;-84
2022/05/10 01:03:03;;;;;;;19.77;11.40;;;14.00;99.90;;;;;;5036667;28;20218;-84
2022/05/10 01:05:51;;;;;;;18.97;12.20;;;14.20;99.90;;;;;;5038402;28;20169;-84
2022/05/10 01:08:21;;;;;;;20.03;12.00;;;14.20;99.90;;;;;;5038771;28;20177;-84
2022/05/10 01:11:03;;;;;;;22.57;12.30;;;14.10;99.90;;;;;;5039263;28;20219;-84
2022/05/10 01:13:40;;;;;;;16.97;12.53;;;14.20;99.90;;;;;;5038812;28;20699;-84
2022/05/10 01:16:16;;;;;;;19.30;12.80;;;14.30;99.90;;;;;;5036477;28;20180;-84
2022/05/10 01:18:42;;;;;;;22.87;12.83;;;14.10;99.90;;;;;;5039657;28;20601;-84
2022/05/10 01:21:34;;;;;;;20.07;13.03;;;14.00;99.90;;;;;;5039449;28;20193;-84
2022/05/10 01:24:10;;;;;;;21.30;12.63;;;14.00;99.90;;;;;;5039317;28;20260;-85
2022/05/10 01:26:54;;;;;;;17.63;12.77;;;13.90;99.90;;;;;;5034174;28;20162;-84
2022/05/10 01:29:52;;;;;;;21.73;12.07;;;14.00;99.90;;;;;;5034609;28;20173;-85
2022/05/10 01:35:23;;;;;;;20.80;12.13;;;13.90;99.90;;;;;;5060241;28;20582;-84
2022/05/10 01:37:53;;;;;;;17.43;12.23;;;13.80;99.90;;;;;;5041905;28;20219;-84
2022/05/10 01:40:34;;;;;;;17.90;11.50;;;13.90;99.90;;;;;;5039091;28;20275;-84
2022/05/10 01:43:11;;;;;;;19.03;12.30;;;13.80;99.90;;;;;;5034718;28;20697;-84
2022/05/10 01:45:39;;;;;;;18.33;12.40;;;13.80;99.90;;;;;;5035861;28;20170;-84
2022/05/10 01:48:07;;;;;;;20.77;12.93;;;13.80;99.90;;;;;;5037738;28;20630;-84
2022/05/10 01:50:58;;;;;;;17.90;12.43;;;13.80;99.90;;;;;;5037992;28;20740;-84
2022/05/10 01:53:36;;;;;;;17.60;11.97;;;13.80;99.90;;;;;;5034464;28;20543;-84
2022/05/10 01:56:13;;;;;;;21.00;12.83;;;13.80;99.90;;;;;;5020560;28;20196;-84
2022/05/10 01:58:41;;;;;;;16.80;11.90;;;13.80;99.90;;;;;;5037621;28;20277;-84
2022/05/10 02:01:09;;;;;;;21.40;11.77;;;13.80;99.90;;;;;;5035053;28;20200;-84
2022/05/10 02:03:48;;;;;;;20.40;12.33;;;13.80;99.90;;;;;;5039154;28;20173;-86
2022/05/10 02:06:30;;;;;;;16.60;10.90;;;13.70;99.90;;;;;;5036825;28;20189;-84
2022/05/10 02:09:02;;;;;;;19.63;12.30;;;13.80;99.90;;;;;;5031974;28;20166;-84
2022/05/10 02:11:28;;;;;;;17.87;12.40;;;13.70;99.90;;;;;;5029532;28;20197;-84
2022/05/10 02:14:00;;;;;;;21.60;12.87;;;13.70;99.90;;;;;;5035749;28;20170;-84
2022/05/10 02:16:41;;;;;;;19.30;12.90;;;13.60;99.90;;;;;;5034823;28;20287;-84
2022/05/10 02:19:39;;;;;;;21.90;12.73;;;13.50;99.90;;;;;;5032571;28;20172;-84
2022/05/10 02:22:16;;;;;;;21.20;13.07;;;13.60;99.90;;;;;;5031678;28;20173;-84
2022/05/10 02:25:05;;;;;;;23.90;13.83;;;13.60;99.90;;;;;;5035352;28;20169;-84
2022/05/10 02:27:54;;;;;;;25.03;14.17;;;13.40;99.90;;;;;;5029951;28;20173;-84
2022/05/10 02:30:23;;;;;;;23.17;13.73;;;13.40;99.90;;;;;;5025847;28;20744;-84
2022/05/10 02:33:09;;;;;;;21.40;14.03;;;13.50;99.90;;;;;;5034174;28;20208;-84
2022/05/10 02:35:49;;;;;;;19.67;13.40;;;13.40;99.90;;;;;;5033741;28;20380;-84
2022/05/10 02:38:18;;;;;;;25.07;13.87;;;13.50;99.90;;;;;;5033547;28;20169;-84
2022/05/10 02:40:45;;;;;;;24.37;13.60;;;13.20;99.90;;;;;;5034720;28;20578;-84
2022/05/10 02:43:32;;;;;;;21.07;13.90;;;13.20;99.90;;;;;;5034535;28;20186;-84
2022/05/10 02:45:58;;;;;;;23.60;13.57;;;13.20;99.90;;;;;;5035437;28;20173;-85
2022/05/10 02:48:28;;;;;;;23.37;14.53;;;13.40;99.90;;;;;;5036112;28;20195;-85
2022/05/10 02:50:54;;;;;;;25.27;14.47;;;13.40;99.90;;;;;;5037011;28;20200;-86
2022/05/10 02:53:20;;;;;;;19.17;12.80;;;13.20;99.90;;;;;;5037766;28;20342;-85
2022/05/10 02:55:54;;;;;;;18.90;12.63;;;13.60;99.90;;;;;;5036776;28;20183;-87
2022/05/10 02:58:39;;;;;;;22.13;13.23;;;13.40;99.90;;;;;;5037888;28;20184;-86
2022/05/10 03:01:26;;;;;;;17.53;12.63;;;13.50;99.90;;;;;;5037209;28;20251;-86
2022/05/10 03:03:52;;;;;;;26.47;13.50;;;13.40;99.90;;;;;;5038300;28;20284;-87
2022/05/10 03:06:22;;;;;;;21.23;13.63;;;13.30;99.90;;;;;;5036138;28;20596;-86
2022/05/10 03:08:48;;;;;;;22.67;13.77;;;13.20;99.90;;;;;;5036100;28;20699;-85
2022/05/10 03:11:14;;;;;;;25.70;15.10;;;13.10;99.90;;;;;;5038941;28;20299;-86
2022/05/10 03:13:44;;;;;;;23.37;15.20;;;13.10;99.90;;;;;;5045228;28;20260;-85
2022/05/10 03:16:11;;;;;;;22.90;15.37;;;13.20;99.90;;;;;;5042430;28;20172;-85
2022/05/10 03:18:37;;;;;;;25.23;15.07;;;13.20;99.90;;;;;;5045853;28;20245;-86
2022/05/10 03:21:03;;;;;;;25.43;14.47;;;13.10;99.90;;;;;;5044614;28;20228;-85
2022/05/10 03:23:28;;;;;;;22.17;14.80;;;13.10;99.90;;;;;;5045596;28;20176;-86
2022/05/10 03:25:58;;;;;;;21.20;14.50;;;13.20;99.90;;;;;;5044624;28;20173;-86
2022/05/10 03:28:24;;;;;;;24.00;14.40;;;13.20;99.90;;;;;;5038940;28;20268;-86
2022/05/10 03:30:50;;;;;;;23.23;13.80;;;13.20;99.90;;;;;;5047164;28;20205;-85
2022/05/10 03:33:17;;;;;;;21.70;14.10;;;13.20;99.90;;;;;;5045136;28;20205;-85
2022/05/10 03:35:42;;;;;;;22.50;14.10;;;13.10;99.90;;;;;;5045124;28;20180;-85
2022/05/10 03:38:08;;;;;;;22.40;14.93;;;13.20;99.90;;;;;;5045325;28;20174;-86
2022/05/10 03:40:34;;;;;;;23.73;14.93;;;13.10;99.90;;;;;;5045598;28;20696;-86
2022/05/10 03:43:01;;;;;;;23.90;14.83;;;13.10;99.90;;;;;;5045319;28;20174;-84
2022/05/10 03:45:27;;;;;;;27.67;15.73;;;13.30;99.90;;;;;;5041249;28;20177;-84
2022/05/10 03:47:54;;;;;;;22.17;15.30;;;13.10;99.90;;;;;;5046174;28;20176;-86
2022/05/10 03:50:22;;;;;;;26.70;15.63;;;13.20;99.90;;;;;;5049705;28;20223;-86
2022/05/10 03:52:48;;;;;;;25.77;15.80;;;13.10;99.90;;;;;;5049694;28;20295;-86
2022/05/10 03:55:19;;;;;;;28.00;15.53;;;12.90;99.90;;;;;;5049399;28;20177;-87
2022/05/10 03:57:45;;;;;;;25.77;15.07;;;13.10;99.90;;;;;;5050774;28;20227;-86
2022/05/10 04:00:16;;;;;;;22.70;15.17;;;13.20;99.90;;;;;;5051142;28;20200;-86
2022/05/10 04:02:42;;;;;;;23.17;14.70;;;13.40;99.90;;;;;;5049511;28;20164;-86
2022/05/10 04:05:08;;;;;;;24.17;15.40;;;13.40;99.90;;;;;;5048045;28;20568;-86
2022/05/10 04:07:34;;;;;;;23.80;14.40;;;13.30;99.90;;;;;;5047382;28;20181;-86
2022/05/10 04:10:00;;;;;;;21.70;13.93;;;13.30;99.90;;;;;;5038693;28;20206;-85
2022/05/10 04:12:26;;;;;;;22.90;14.80;;;13.40;99.90;;;;;;5039115;28;20193;-85
2022/05/10 04:14:51;;;;;;;22.67;15.03;;;13.30;99.90;;;;;;5041701;28;20691;-86
2022/05/10 04:17:17;;;;;;;21.03;13.93;;;13.20;99.90;;;;;;5041686;28;20643;-85
2022/05/10 04:19:43;;;;;;;23.40;13.97;;;13.30;99.90;;;;;;5041094;28;20196;-86
2022/05/10 04:22:09;;;;;;;21.07;13.93;;;13.30;99.90;;;;;;5039548;28;20183;-85
2022/05/10 04:24:35;;;;;;;22.33;13.77;;;13.50;99.90;;;;;;5041273;28;20173;-85
2022/05/10 04:27:01;;;;;;;24.13;13.43;;;13.50;99.90;;;;;;5056954;28;20215;-85
2022/05/10 04:29:27;;;;;;;25.93;13.50;;;13.50;99.90;;;;;;5039013;28;20174;-86
2022/05/10 04:31:53;;;;;;;19.83;12.77;;;13.60;99.90;;;;;;5040432;28;20193;-85
2022/05/10 04:34:19;;;;;;;21.43;13.20;;;13.60;99.90;;;;;;5042975;28;20173;-85
2022/05/10 04:36:45;;;;;;;20.60;12.97;;;13.80;99.90;;;;;;5046406;28;20575;-86
2022/05/10 04:39:11;;;;;;;19.43;13.20;;;13.70;99.90;;;;;;5045645;28;20193;-87
2022/05/10 04:41:43;;;;;;;20.07;12.60;;;13.60;99.90;;;;;;5046078;28;20189;-85
2022/05/10 04:44:10;;;;;;;20.63;12.83;;;13.60;99.90;;;;;;5046682;28;20173;-85
2022/05/10 04:46:38;;;;;;;19.70;12.43;;;13.60;99.90;;;;;;5045696;28;20174;-86
2022/05/10 04:49:06;;;;;;;28.43;13.07;;;13.60;99.90;;;;;;5065439;28;20174;-86
2022/05/10 04:51:32;;;;;;;22.13;12.20;;;13.70;99.90;;;;;;5043212;28;20200;-85
2022/05/10 04:53:58;;;;;;;22.63;12.87;;;13.80;99.90;;;;;;5041188;28;20165;-85
2022/05/10 04:56:24;;;;;;;21.33;12.10;;;13.80;99.90;;;;;;5041368;28;20267;-86
2022/05/10 04:58:54;;;;;;;17.97;12.13;;;14.00;99.90;;;;;;5040770;28;20212;-85
2022/05/10 05:01:22;;;;;;;21.43;12.93;;;14.00;99.90;;;;;;5041115;28;20197;-86
2022/05/10 05:03:49;;;;;;;17.50;11.80;;;14.00;99.90;;;;;;5041503;28;20176;-86
2022/05/10 05:06:16;;;;;;;20.70;12.73;;;14.10;99.90;;;;;;5038517;28;20649;-85
2022/05/10 05:08:42;;;;;;;22.23;12.03;;;14.10;99.90;;;;;;5040985;28;20178;-86
2022/05/10 05:11:08;;;;;;;24.67;12.03;;;14.10;99.90;;;;;;5039979;28;20549;-86
2022/05/10 05:13:34;;;;;;;19.23;11.70;;;14.30;99.90;;;;;;5044221;28;20161;-86
2022/05/10 05:16:00;;;;;;;16.50;12.40;;;14.40;99.90;;;;;;5043063;28;20195;-87
2022/05/10 05:18:25;;;;;;;19.00;11.57;;;14.40;99.90;;;;;;5044090;28;20641;-86
2022/05/10 05:20:51;;;;;;;18.07;11.83;;;14.40;99.90;;;;;;5045645;28;20280;-86
2022/05/10 05:23:21;;;;;;;19.43;12.33;;;14.30;99.90;;;;;;5045251;28;20193;-86
2022/05/10 05:25:47;;;;;;;17.90;12.13;;;14.30;99.90;;;;;;5044242;28;20692;-87
2022/05/10 05:28:13;;;;;;;21.47;11.37;;;14.40;99.90;;;;;;5045146;28;20172;-86
2022/05/10 05:30:41;;;;;;;15.63;12.00;;;14.50;99.90;;;;;;5045007;28;20215;-85
2022/05/10 05:33:07;;;;;;;24.80;12.40;;;14.50;99.90;;;;;;5045793;28;20276;-86
2022/05/10 05:35:33;;;;;;;24.57;12.97;;;14.50;99.90;;;;;;5044538;28;20216;-85
2022/05/10 05:37:59;;;;;;;15.57;11.17;;;14.70;99.90;;;;;;5045451;28;20193;-87
2022/05/10 05:40:25;;;;;;;17.03;11.03;;;14.70;99.90;;;;;;5045062;28;20188;-87
2022/05/10 05:42:52;;;;;;;22.80;10.63;;;14.80;99.90;;;;;;5044480;28;20181;-86
2022/05/10 05:45:20;;;;;;;17.27;10.70;;;14.80;99.90;;;;;;5045251;28;20176;-85
2022/05/10 05:47:46;;;;;;;15.27;10.73;;;15.00;99.90;;;;;;5045253;28;20200;-85
2022/05/10 05:50:14;;;;;;;17.60;9.87;;;15.20;99.90;;;;;;5045310;28;20264;-86
2022/05/10 05:52:41;;;;;;;18.47;10.70;;;15.30;99.90;;;;;;5044657;28;20279;-86
2022/05/10 05:55:08;;;;;;;18.50;10.50;;;15.60;99.90;;;;;;5044330;28;20173;-86
2022/05/10 05:57:34;;;;;;;16.43;9.70;;;16.10;99.90;;;;;;5044481;28;20165;-86
2022/05/10 06:00:06;;;;;;;15.40;8.90;;;16.50;99.90;;;;;;5044463;28;20319;-87
2022/05/10 06:02:32;;;;;;;14.87;8.83;;;16.70;99.90;;;;;;5026318;28;20578;-86
2022/05/10 06:04:58;;;;;;;14.63;9.03;;;16.90;99.90;;;;;;5043392;28;20569;-86
2022/05/10 06:07:23;;;;;;;12.47;8.13;;;16.90;99.90;;;;;;5062258;28;20244;-86
2022/05/10 06:09:49;;;;;;;14.77;8.30;;;17.30;99.90;;;;;;5041373;28;20287;-87
2022/05/10 06:12:19;;;;;;;13.57;7.40;;;17.70;99.90;;;;;;5040766;28;20197;-83
2022/05/10 06:14:45;;;;;;;10.57;7.22;;;18.10;99.90;;;;;;5038512;28;20261;-83
2022/05/10 06:17:12;;;;;;;12.52;7.55;;;18.30;99.90;;;;;;5040835;28;20531;-84
2022/05/10 06:19:39;;;;;;;13.43;6.97;;;18.20;99.90;;;;;;5037483;28;20189;-85
2022/05/10 06:22:06;;;;;;;14.02;6.78;;;18.20;99.90;;;;;;5036423;28;20169;-85
2022/05/10 06:24:32;;;;;;;9.90;6.88;;;18.10;99.90;;;;;;5037064;28;20626;-83
2022/05/10 06:26:58;;;;;;;11.27;7.05;;;17.80;99.90;;;;;;5036255;28;20188;-84
2022/05/10 06:29:23;;;;;;;8.65;6.72;;;18.20;99.90;;;;;;5036206;28;20165;-84
2022/05/10 06:31:50;;;;;;;15.85;7.68;;;18.20;99.90;;;;;;5035713;28;20670;-84
2022/05/10 06:34:17;;;;;;;14.30;7.00;;;18.30;99.90;;;;;;5036270;28;20241;-83
2022/05/10 06:36:44;;;;;;;10.95;7.05;;;18.40;99.90;;;;;;5036703;28;20177;-84
2022/05/10 06:39:10;;;;;;;11.18;7.32;;;18.40;99.90;;;;;;5035832;28;20181;-84
2022/05/10 06:41:37;;;;;;;9.27;6.70;;;18.70;99.90;;;;;;5036284;28;20197;-85
2022/05/10 06:44:04;;;;;;;11.73;7.15;;;19.00;99.90;;;;;;5035996;28;20189;-84
2022/05/10 06:46:32;;;;;;;11.32;6.97;;;19.00;99.90;;;;;;5035619;28;20262;-84
2022/05/10 06:48:58;;;;;;;20.30;8.23;;;18.90;99.90;;;;;;5035528;28;20727;-84
2022/05/10 06:51:25;;;;;;;15.05;7.50;;;18.80;99.90;;;;;;5035713;28;20197;-86
2022/05/10 06:53:53;;;;;;;11.90;7.18;;;18.70;99.90;;;;;;5054121;28;20634;-83
2022/05/10 06:56:19;;;;;;;11.75;7.57;;;18.70;99.90;;;;;;5035354;28;20211;-84
2022/05/10 06:58:45;;;;;;;12.85;7.10;;;18.90;99.90;;;;;;5035770;28;20185;-83
2022/05/10 07:01:14;;;;;;;11.18;7.47;;;19.10;99.90;;;;;;5053721;28;20189;-85
2022/05/10 07:03:40;;;;;;;10.02;7.15;;;19.10;99.90;;;;;;5036297;28;20166;-84
2022/05/10 07:06:08;;;;;;;12.13;7.45;;;19.20;99.90;;;;;;5036327;28;20173;-84
2022/05/10 07:08:34;;;;;;;10.88;7.28;;;19.50;99.90;;;;;;5036339;28;20259;-83
2022/05/10 07:11:00;;;;;;;14.90;6.97;;;19.30;99.90;;;;;;5034741;28;20194;-82
2022/05/10 07:13:34;;;;;;;16.17;7.28;;;19.60;99.90;;;;;;5036759;28;20205;-82
2022/05/10 07:16:01;;;;;;;12.75;6.95;;;19.70;99.90;;;;;;5036179;28;20184;-83
2022/05/10 07:18:27;;;;;;;14.77;7.82;;;19.80;99.90;;;;;;5035494;28;20649;-84
2022/05/10 07:20:53;;;;;;;12.55;7.35;;;20.10;99.90;;;;;;5033810;28;20388;-83
2022/05/10 07:23:25;;;;;;;13.77;7.45;;;19.90;99.90;;;;;;5034269;28;20525;-82
2022/05/10 07:25:51;;;;;;;11.85;7.60;;;20.00;99.90;;;;;;5034009;28;20170;-84
2022/05/10 07:28:17;;;;;;;13.07;7.22;;;20.10;99.90;;;;;;5034225;28;20196;-86
2022/05/10 07:30:43;;;;;;;12.82;8.70;;;20.10;99.90;;;;;;5033846;28;20744;-84
2022/05/10 07:33:09;;;;;;;11.23;6.93;;;20.00;99.90;;;;;;5033737;28;20833;-83
2022/05/10 07:38:19;;;;;;;10.63;8.07;;;20.10;99.90;;;;;;5054806;28;20220;-83
2022/05/10 07:40:49;;;;;;;10.20;7.45;;;20.10;99.90;;;;;;5033799;28;20906;-83
2022/05/10 07:43:17;;;;;;;32.53;8.02;;;20.50;99.90;;;;;;5032330;28;20180;-83
2022/05/10 07:45:45;;;;;;;15.13;7.95;;;20.90;99.90;;;;;;5033514;28;20169;-82
2022/05/10 07:48:11;;;;;;;14.20;7.28;;;21.40;99.90;;;;;;5034828;28;20204;-81
2022/05/10 07:50:38;;;;;;;11.93;7.50;;;21.50;99.90;;;;;;5034488;28;20193;-81
2022/05/10 07:53:06;;;;;;;14.45;7.00;;;21.40;99.00;;;;;;5034898;28;20553;-81
2022/05/10 07:55:36;;;;;;;14.65;7.57;;;21.90;98.10;;;;;;5034653;28;20169;-82
2022/05/10 07:58:04;;;;;;;12.40;7.97;;;21.80;98.20;;;;;;5037535;28;20513;-83
2022/05/10 08:00:31;;;;;;;12.75;7.85;;;21.90;97.70;;;;;;5038334;28;20246;-83
2022/05/10 08:02:57;;;;;;;14.30;7.50;;;21.70;97.60;;;;;;5037814;28;20176;-83
2022/05/10 08:05:25;;;;;;;22.75;8.38;;;22.20;98.50;;;;;;5040815;28;20173;-83
2022/05/10 08:07:51;;;;;;;12.93;7.82;;;22.30;96.20;;;;;;5041994;28;20184;-83
2022/05/10 08:10:18;;;;;;;15.82;7.63;;;22.40;96.10;;;;;;5039412;28;20382;-83
2022/05/10 08:12:44;;;;;;;9.95;7.28;;;22.40;96.80;;;;;;5039422;28;20601;-83
2022/05/10 08:15:10;;;;;;;10.30;6.95;;;22.30;96.30;;;;;;5039720;28;20180;-82
2022/05/10 08:17:36;;;;;;;11.77;7.30;;;22.80;95.70;;;;;;5040470;28;20169;-83
2022/05/10 08:20:03;;;;;;;11.32;7.20;;;23.20;94.40;;;;;;5039127;28;20739;-83
2022/05/10 08:22:29;;;;;;;13.65;6.70;;;23.30;95.10;;;;;;5038705;28;20646;-83
2022/05/10 08:24:55;;;;;;;11.52;6.47;;;23.60;93.70;;;;;;5039554;28;20587;-82
2022/05/10 08:27:21;;;;;;;19.95;7.38;;;24.20;92.30;;;;;;5039708;28;20545;-83
2022/05/10 08:29:47;;;;;;;14.73;7.13;;;23.60;92.90;;;;;;5038930;28;20193;-82
2022/05/10 08:32:12;;;;;;;13.60;7.40;;;23.60;92.70;;;;;;5038536;28;20201;-82
2022/05/10 08:34:38;;;;;;;13.27;7.38;;;23.70;92.00;;;;;;5038526;28;20166;-82
2022/05/10 08:37:04;;;;;;;14.90;6.95;;;23.70;92.40;;;;;;5038465;28;20170;-82
2022/05/10 08:39:31;;;;;;;14.13;6.20;;;24.00;91.70;;;;;;5038885;28;20218;-81
2022/05/10 08:42:25;;;;;;;12.70;6.60;;;24.00;92.80;;;;;;5036364;28;20177;-81
2022/05/10 08:45:04;;;;;;;13.63;6.03;;;24.40;91.90;;;;;;5038108;28;20607;-82
2022/05/10 08:47:31;;;;;;;14.15;6.63;;;24.80;90.80;;;;;;5042563;28;20196;-82
2022/05/10 08:50:03;;;;;;;13.27;6.57;;;24.30;89.00;;;;;;5042098;28;20201;-82
2022/05/10 08:52:35;;;;;;;10.38;6.78;;;24.30;90.20;;;;;;5042452;28;20238;-82
2022/05/10 08:55:02;;;;;;;11.73;5.53;;;24.40;90.20;;;;;;5041659;28;20660;-82
2022/05/10 08:57:50;;;;;;;12.70;6.10;;;24.50;90.10;;;;;;5042902;28;20177;-82
2022/05/10 09:00:23;;;;;;;12.82;6.10;;;24.70;88.70;;;;;;5042256;28;20602;-83
2022/05/10 09:02:54;;;;;;;12.93;6.53;;;24.90;89.30;;;;;;5041735;28;20307;-82
2022/05/10 09:05:30;;;;;;;13.05;5.55;;;24.70;89.30;;;;;;5041790;28;20180;-82
2022/05/10 09:08:22;;;;;;;10.52;5.18;;;25.20;88.50;;;;;;5037092;28;20208;-81
2022/05/10 09:11:03;;;;;;;11.52;5.50;;;25.60;88.80;;;;;;5035897;28;20192;-81
2022/05/10 09:13:30;;;;;;;6.30;4.43;;;26.30;86.00;;;;;;5041240;28;20196;-83
2022/05/10 09:15:55;;;;;;;7.70;4.97;;;26.60;83.60;;;;;;5041162;28;20173;-82
2022/05/10 09:18:25;;;;;;;12.43;5.45;;;26.40;84.00;;;;;;5041824;28;20174;-82
2022/05/10 09:21:18;;;;;;;8.65;5.05;;;26.20;82.20;;;;;;5037545;28;20666;-81
2022/05/10 09:24:14;;;;;;;6.97;4.25;;;26.60;82.40;;;;;;5038090;28;20661;-81
2022/05/10 09:26:48;;;;;;;6.15;4.97;;;27.20;84.50;;;;;;5038869;28;20195;-82
2022/05/10 09:29:21;;;;;;;5.60;4.40;;;27.10;79.80;;;;;;5039029;28;20629;-81
2022/05/10 09:34:47;;;;;;;8.70;4.38;;;26.60;79.40;;;;;;5058499;28;20164;-81
2022/05/10 09:37:26;;;;;;;7.80;4.13;;;27.00;79.40;;;;;;5038822;28;20231;-81
2022/05/10 09:39:55;;;;;;;7.40;3.85;;;27.20;80.20;;;;;;5037968;28;20196;-81
2022/05/10 09:42:39;;;;;;;8.95;4.20;;;27.50;78.00;;;;;;5056015;28;20173;-82
2022/05/10 09:45:16;;;;;;;8.27;3.75;;;26.90;79.40;;;;;;5037095;28;20637;-82
2022/05/10 09:48:08;;;;;;;13.95;4.13;;;27.30;78.20;;;;;;5036885;28;20212;-81
2022/05/10 09:50:42;;;;;;;9.55;3.63;;;27.50;79.70;;;;;;5036546;28;20200;-81
2022/05/10 09:53:08;;;;;;;8.40;4.45;;;28.30;78.50;;;;;;5037398;28;20233;-82
2022/05/10 09:55:34;;;;;;;4.55;3.80;;;27.80;77.20;;;;;;5036642;28;20196;-81
2022/05/10 09:58:19;;;;;;;6.35;3.90;;;27.40;75.40;;;;;;5036513;28;20181;-83
2022/05/10 10:00:56;;;;;;;11.18;4.00;;;27.40;75.40;;;;;;5036019;28;20204;-83
2022/05/10 10:03:34;;;;;;;7.40;3.55;;;27.60;76.00;;;;;;5036131;28;20172;-82
2022/05/10 10:06:22;;;;;;;8.35;3.63;;;27.90;74.20;;;;;;5036976;28;20508;-82
2022/05/10 10:08:56;;;;;;;10.27;3.50;;;27.80;74.90;;;;;;5036202;28;20173;-82
2022/05/10 10:11:22;;;;;;;6.68;4.00;;;27.40;76.30;;;;;;5035411;28;20209;-83
2022/05/10 10:13:57;;;;;;;6.45;3.80;;;27.20;74.10;;;;;;5036534;28;20298;-83
2022/05/10 10:16:33;;;;;;;8.90;3.95;;;27.50;73.90;;;;;;5036795;28;20591;-83
2022/05/10 10:19:43;;;;;;;9.43;3.50;;;27.20;76.30;;;;;;5035939;28;20633;-83
2022/05/10 10:22:33;;;;;;;4.28;3.33;;;27.10;74.30;;;;;;5035765;28;20181;-83
2022/05/10 10:25:29;;;;;;;5.47;3.67;;;27.00;75.60;;;;;;5037031;28;20243;-83
2022/05/10 10:28:24;;;;;;;7.28;3.53;;;27.10;74.40;;;;;;4998919;28;20185;-83
2022/05/10 10:30:50;;;;;;;7.47;3.95;;;26.70;73.70;;;;;;5054937;28;20189;-82
2022/05/10 10:33:37;;;;;;;7.40;3.60;;;26.80;73.20;;;;;;5035509;28;20227;-80
2022/05/10 10:36:21;;;;;;;4.03;3.50;;;26.90;72.50;;;;;;5035813;28;20222;-78
2022/05/10 10:38:47;;;;;;;8.45;3.90;;;26.30;74.50;;;;;;5036058;28;20173;-79
2022/05/10 10:41:18;;;;;;;4.65;3.53;;;26.50;72.60;;;;;;5035214;28;20603;-79
2022/05/10 10:44:10;;;;;;;7.18;3.20;;;26.20;74.20;;;;;;5035800;28;20180;-81
2022/05/10 10:46:43;;;;;;;5.50;3.25;;;26.20;73.10;;;;;;5035238;28;20170;-81
2022/05/10 10:49:13;;;;;;;6.20;3.25;;;25.90;75.10;;;;;;5035405;28;20170;-82
2022/05/10 10:51:39;;;;;;;5.00;3.38;;;25.90;72.60;;;;;;5035411;28;20619;-81
2022/05/10 10:54:14;;;;;;;6.63;3.28;;;25.90;73.60;;;;;;5035556;28;20713;-85
2022/05/10 10:56:59;;;;;;;7.88;3.42;;;26.00;73.20;;;;;;5035151;28;20172;-81
2022/05/10 10:59:45;;;;;;;4.18;3.15;;;25.60;71.80;;;;;;5038366;28;20211;-82
2022/05/10 11:02:40;;;;;;;3.83;3.10;;;25.40;72.40;;;;;;5038149;28;20215;-81
2022/05/10 11:05:11;;;;;;;9.75;3.20;;;25.70;72.40;;;;;;5033543;28;20616;-81
2022/05/10 11:08:06;;;;;;;4.57;3.10;;;25.60;71.50;;;;;;5038358;28;20223;-81
2022/05/10 11:10:47;;;;;;;3.55;2.90;;;25.50;71.60;;;;;;5037936;28;20257;-81
2022/05/10 11:13:49;;;;;;;5.63;3.35;;;25.60;72.20;;;;;;5038263;28;20751;-82
2022/05/10 11:16:34;;;;;;;3.80;3.17;;;25.60;72.30;;;;;;5037911;28;20177;-82
2022/05/10 11:19:24;;;;;;;8.90;3.63;;;25.80;73.00;;;;;;5037630;28;20176;-83
2022/05/10 11:22:07;;;;;;;7.57;3.15;;;25.70;73.10;;;;;;5037041;28;20184;-81
2022/05/10 11:24:59;;;;;;;5.03;3.28;;;25.60;73.10;;;;;;5037811;28;20646;-81
2022/05/10 11:27:46;;;;;;;6.03;3.45;;;25.20;72.80;;;;;;5024899;28;20318;-81
2022/05/10 11:30:33;;;;;;;6.00;3.80;;;25.40;72.50;;;;;;5056426;28;20540;-81
2022/05/10 11:33:10;;;;;;;6.80;3.65;;;25.30;71.70;;;;;;5042038;28;20204;-82
2022/05/10 11:35:42;;;;;;;6.05;3.67;;;25.50;72.90;;;;;;5040118;28;20169;-82
2022/05/10 11:38:22;;;;;;;8.13;4.00;;;25.30;74.00;;;;;;5038691;28;20236;-82
2022/05/10 11:41:26;;;;;;;8.60;4.13;;;25.30;73.00;;;;;;5037772;28;20227;-82
2022/05/10 11:44:34;;;;;;;5.15;3.45;;;25.30;72.90;;;;;;5039251;28;20177;-81
2022/05/10 11:47:23;;;;;;;4.10;3.53;;;25.20;73.00;;;;;;4993759;28;20181;-81
2022/05/10 11:49:55;;;;;;;6.93;3.67;;;25.30;72.90;;;;;;5012574;28;20209;-82
2022/05/10 11:52:29;;;;;;;9.98;4.13;;;25.40;73.60;;;;;;5039535;28;20795;-82
2022/05/10 11:55:05;;;;;;;6.00;3.63;;;25.60;72.70;;;;;;5039640;28;20211;-82
2022/05/10 11:57:33;;;;;;;11.02;4.53;;;25.50;74.10;;;;;;5039503;28;20165;-83
2022/05/10 12:00:27;;;;;;;7.07;3.70;;;25.20;73.00;;;;;;5039335;28;20209;-82
2022/05/10 12:02:54;;;;;;;5.32;3.90;;;25.40;72.20;;;;;;5039269;28;20173;-82
2022/05/10 12:05:23;;;;;;;5.03;3.80;;;25.70;72.20;;;;;;5039483;28;20187;-82
2022/05/10 12:07:49;;;;;;;9.95;4.15;;;25.90;74.70;;;;;;5039630;28;20507;-81
2022/05/10 12:10:40;;;;;;;14.05;4.45;;;26.00;73.10;;;;;;5039027;28;20205;-82
2022/05/10 12:13:06;;;;;;;6.78;4.00;;;25.80;73.40;;;;;;5039113;28;20700;-81
2022/05/10 12:21:26;;;;;;;6.60;4.07;;;25.70;74.90;;;;;;5055351;28;20331;-82
2022/05/10 12:24:14;;;;;;;6.03;4.20;;;25.70;73.70;;;;;;5039354;28;20633;-81
2022/05/10 12:26:49;;;;;;;5.55;4.40;;;25.60;75.30;;;;;;5038530;28;20588;-83
2022/05/10 12:29:54;;;;;;;8.88;4.50;;;25.30;74.60;;;;;;5038699;28;20433;-81
2022/05/10 12:32:36;;;;;;;8.27;4.50;;;25.30;73.90;;;;;;5038458;28;20204;-82
2022/05/10 12:35:05;;;;;;;5.72;3.97;;;25.40;75.40;;;;;;5038946;28;20169;-83
2022/05/10 12:37:38;;;;;;;9.52;4.18;;;25.40;75.20;;;;;;5038607;28;20169;-81
2022/05/10 12:40:10;;;;;;;7.18;3.40;;;25.50;73.60;;;;;;5039168;28;20192;-82
2022/05/10 12:42:51;;;;;;;6.45;3.28;;;25.30;71.30;;;;;;5037245;28;20857;-81
2022/05/10 12:45:54;;;;;;;5.78;3.25;;;25.30;72.30;;;;;;5038439;28;20185;-82
2022/05/10 12:48:44;;;;;;;7.30;3.40;;;25.40;71.30;;;;;;5038473;28;20177;-81
2022/05/10 12:52:13;;;;;;;7.97;3.28;;;25.70;70.30;;;;;;5038089;28;20196;-81
2022/05/10 12:54:43;;;;;;;6.65;3.50;;;25.80;69.40;;;;;;4939658;29;20304;-81
2022/05/10 12:57:32;;;;;;;4.55;2.97;;;25.60;68.90;;;;;;4939913;29;20267;-81
2022/05/10 12:59:57;;;;;;;7.63;3.47;;;25.80;69.50;;;;;;5007358;28;20788;-81
2022/05/10 13:02:24;;;;;;;6.20;3.67;;;25.60;70.30;;;;;;5038529;28;20209;-82
2022/05/10 13:04:55;;;;;;;5.28;3.75;;;25.60;70.10;;;;;;5038717;28;20707;-81
2022/05/10 13:07:37;;;;;;;7.15;3.78;;;25.50;69.40;;;;;;5037750;28;20173;-81
2022/05/10 13:10:08;;;;;;;8.48;3.55;;;25.40;69.70;;;;;;5037996;28;20189;-81
2022/05/10 13:12:45;;;;;;;7.10;3.75;;;25.60;70.70;;;;;;5037410;28;20724;-81
2022/05/10 13:15:20;;;;;;;4.22;3.25;;;25.60;73.60;;;;;;5038072;28;20173;-81
2022/05/10 13:17:52;;;;;;;4.88;3.88;;;25.70;70.80;;;;;;5037903;28;20692;-81
2022/05/10 13:20:22;;;;;;;5.97;3.90;;;25.70;69.10;;;;;;5037582;28;20568;-81